Time;durP1;ratioP1;P1;durP2;ratioP2;P2;SDS_P1;SDS_P2;PMS_P1;PMS_P2;Temp;Humidity;BMP_temperature;BMP_pressure;BME280_temperature;BME280_humidity;BME280_pressure;Samples;Min_cycle;Max_cycle;Signal;HPM_P1;HPM_P2
2022/05/27 00:00:48;;;;;;;5.27;2.00;;;14.90;99.90;;;;;;5074164;28;20672;-64
2022/05/27 00:03:17;;;;;;;3.00;1.70;;;14.90;1.00;;;;;;5074246;28;20605;-64
2022/05/27 00:05:43;;;;;;;2.50;2.17;;;14.80;1.00;;;;;;5074107;28;20209;-64
2022/05/27 00:08:11;;;;;;;4.00;2.10;;;14.70;1.00;;;;;;5074062;28;20591;-63
2022/05/27 00:10:38;;;;;;;3.30;2.10;;;14.70;1.00;;;;;;5074342;28;20209;-64
2022/05/27 00:13:06;;;;;;;2.83;1.93;;;14.70;1.00;;;;;;5073915;28;20711;-64
2022/05/27 00:15:32;;;;;;;2.83;1.90;;;14.70;1.00;;;;;;5073694;28;20267;-66
2022/05/27 00:17:59;;;;;;;3.30;1.83;;;14.70;1.00;;;;;;5073621;28;20201;-64
2022/05/27 00:20:27;;;;;;;4.97;2.00;;;14.60;1.00;;;;;;5073590;28;20213;-64
2022/05/27 00:22:54;;;;;;;3.73;2.00;;;14.60;1.00;;;;;;5074092;28;20225;-64
2022/05/27 00:25:21;;;;;;;4.37;1.60;;;14.60;6.80;;;;;;5073605;28;20235;-64
2022/05/27 00:27:47;;;;;;;2.53;1.60;;;14.60;2.60;;;;;;5073613;28;20228;-64
2022/05/27 00:30:14;;;;;;;5.13;2.17;;;14.60;5.40;;;;;;5073898;28;20619;-64
2022/05/27 00:32:41;;;;;;;4.07;2.20;;;14.60;32.20;;;;;;5073425;28;20301;-63
2022/05/27 00:35:09;;;;;;;4.30;1.67;;;14.50;77.90;;;;;;5072735;28;20306;-64
2022/05/27 00:37:37;;;;;;;5.20;2.20;;;14.50;92.90;;;;;;5073187;28;20201;-64
2022/05/27 00:40:06;;;;;;;3.50;2.23;;;14.40;99.00;;;;;;5073595;28;20216;-64
2022/05/27 00:42:32;;;;;;;6.60;2.33;;;14.30;99.30;;;;;;5073040;28;20775;-64
2022/05/27 00:44:59;;;;;;;3.73;2.03;;;14.30;99.90;;;;;;5073406;28;20212;-64
2022/05/27 00:47:32;;;;;;;4.07;2.27;;;14.30;99.90;;;;;;5072818;28;20220;-64
2022/05/27 00:50:04;;;;;;;3.93;2.07;;;14.20;99.90;;;;;;5073359;28;20212;-64
2022/05/27 00:52:34;;;;;;;3.80;2.40;;;14.20;99.90;;;;;;5073523;28;20266;-64
2022/05/27 00:55:05;;;;;;;2.67;2.10;;;14.10;99.90;;;;;;5073149;28;20217;-64
2022/05/27 00:57:36;;;;;;;3.20;2.70;;;14.00;99.90;;;;;;5072916;28;20724;-64
2022/05/27 01:00:06;;;;;;;2.93;2.00;;;14.00;99.90;;;;;;5073037;28;20678;-64
2022/05/27 01:02:34;;;;;;;3.70;2.20;;;13.90;99.90;;;;;;5073252;28;20650;-64
2022/05/27 01:05:02;;;;;;;4.50;2.30;;;13.90;99.90;;;;;;5073071;28;20213;-64
2022/05/27 01:07:29;;;;;;;4.17;2.80;;;13.90;99.90;;;;;;5072707;28;20243;-64
2022/05/27 01:09:56;;;;;;;5.10;2.70;;;13.90;99.90;;;;;;5072964;28;20216;-64
2022/05/27 01:12:41;;;;;;;3.67;2.43;;;13.80;99.90;;;;;;5072508;28;20224;-64
2022/05/27 01:15:16;;;;;;;2.50;2.13;;;13.80;99.90;;;;;;5072743;28;20751;-63
2022/05/27 01:17:51;;;;;;;3.43;2.30;;;13.80;99.90;;;;;;5072447;28;20249;-64
2022/05/27 01:20:27;;;;;;;5.73;2.60;;;13.90;99.90;;;;;;5072720;28;20211;-64
2022/05/27 01:23:24;;;;;;;4.63;2.53;;;13.80;99.90;;;;;;5072442;28;20285;-64
2022/05/27 01:26:36;;;;;;;5.20;2.33;;;13.80;99.90;;;;;;5072728;28;20282;-64
2022/05/27 01:29:27;;;;;;;5.80;2.40;;;13.80;99.90;;;;;;5072248;28;20254;-64
2022/05/27 01:32:18;;;;;;;3.43;2.30;;;13.80;99.90;;;;;;5063577;28;20582;-63
2022/05/27 01:34:53;;;;;;;3.03;2.40;;;13.80;99.90;;;;;;5072230;28;20299;-63
2022/05/27 01:37:29;;;;;;;5.97;2.47;;;13.80;99.90;;;;;;5071271;28;20571;-64
2022/05/27 01:40:06;;;;;;;3.90;2.70;;;13.80;99.90;;;;;;5072517;28;20631;-64
2022/05/27 01:42:39;;;;;;;5.23;2.80;;;13.80;99.90;;;;;;5072432;28;20223;-63
2022/05/27 01:45:10;;;;;;;4.70;2.80;;;13.90;99.90;;;;;;5072064;28;20745;-64
2022/05/27 01:47:43;;;;;;;3.37;2.90;;;13.90;99.90;;;;;;5071895;28;20280;-64
2022/05/27 01:50:15;;;;;;;4.43;3.07;;;13.90;99.90;;;;;;5072043;28;20711;-63
2022/05/27 01:52:48;;;;;;;6.80;3.00;;;13.80;99.90;;;;;;5072167;28;20694;-64
2022/05/27 01:55:20;;;;;;;4.23;2.77;;;13.90;99.90;;;;;;5072119;28;20606;-63
2022/05/27 01:57:51;;;;;;;3.83;2.70;;;13.90;99.90;;;;;;5071977;28;20200;-63
2022/05/27 02:00:22;;;;;;;5.33;2.87;;;13.90;99.90;;;;;;5072006;28;20212;-63
2022/05/27 02:02:55;;;;;;;7.67;3.00;;;13.90;99.90;;;;;;5072624;28;20269;-64
2022/05/27 02:05:27;;;;;;;4.97;3.20;;;13.80;99.90;;;;;;5072101;28;20212;-64
2022/05/27 02:07:57;;;;;;;7.27;3.27;;;13.90;99.90;;;;;;5071637;28;20227;-64
2022/05/27 02:10:29;;;;;;;7.63;3.47;;;13.80;99.90;;;;;;5072074;28;20205;-64
2022/05/27 02:12:59;;;;;;;6.33;3.40;;;13.80;99.90;;;;;;5071626;28;20710;-64
2022/05/27 02:15:31;;;;;;;6.50;3.60;;;13.80;99.90;;;;;;5071974;28;20223;-64
2022/05/27 02:18:04;;;;;;;4.60;3.33;;;13.80;99.90;;;;;;5071366;28;20246;-63
2022/05/27 02:20:35;;;;;;;4.77;3.60;;;13.70;99.90;;;;;;5071921;28;20212;-64
2022/05/27 02:23:07;;;;;;;6.73;3.23;;;13.70;99.90;;;;;;5071533;28;20285;-63
2022/05/27 02:25:38;;;;;;;4.30;3.27;;;13.60;99.90;;;;;;5072037;28;20218;-64
2022/05/27 02:28:11;;;;;;;8.83;3.20;;;13.60;99.90;;;;;;5071368;28;20232;-63
2022/05/27 02:30:44;;;;;;;8.07;4.40;;;13.60;99.90;;;;;;5071926;28;20216;-64
2022/05/27 02:36:03;;;;;;;10.23;4.10;;;13.50;99.90;;;;;;5071435;28;20646;-64
2022/05/27 02:38:31;;;;;;;6.90;3.73;;;13.50;99.90;;;;;;5071645;28;20620;-64
2022/05/27 02:41:04;;;;;;;6.57;3.80;;;13.50;99.90;;;;;;5071734;28;20233;-63
2022/05/27 02:43:46;;;;;;;5.70;3.53;;;13.50;99.90;;;;;;5071643;28;20314;-63
2022/05/27 02:46:24;;;;;;;7.67;4.07;;;13.50;99.90;;;;;;5070958;28;20213;-64
2022/05/27 02:49:02;;;;;;;8.60;4.37;;;13.40;99.90;;;;;;5072822;28;20230;-64
2022/05/27 02:51:36;;;;;;;7.83;4.57;;;13.40;99.90;;;;;;5075589;28;20218;-66
2022/05/27 02:54:10;;;;;;;6.20;4.10;;;13.30;99.90;;;;;;5075573;28;20769;-64
2022/05/27 02:56:41;;;;;;;5.03;3.80;;;13.30;99.90;;;;;;5074954;28;20233;-64
2022/05/27 02:59:10;;;;;;;9.43;3.77;;;13.30;99.90;;;;;;5075921;28;20229;-64
2022/05/27 03:01:37;;;;;;;7.07;3.67;;;13.20;99.90;;;;;;5075317;28;20213;-64
2022/05/27 03:04:06;;;;;;;5.03;3.90;;;13.20;99.90;;;;;;5075549;28;20231;-64
2022/05/27 03:06:44;;;;;;;6.30;3.50;;;13.10;99.90;;;;;;5074856;28;20259;-64
2022/05/27 03:09:23;;;;;;;5.93;4.00;;;13.10;99.90;;;;;;5075289;28;20641;-64
2022/05/27 03:11:59;;;;;;;6.80;4.13;;;13.00;99.90;;;;;;5075291;28;20272;-64
2022/05/27 03:15:00;;;;;;;7.63;4.40;;;13.00;99.90;;;;;;5075175;28;20268;-64
2022/05/27 03:17:42;;;;;;;5.77;3.97;;;13.00;99.90;;;;;;5074587;28;20205;-64
2022/05/27 03:20:41;;;;;;;6.90;4.30;;;13.00;99.90;;;;;;5075133;28;20700;-64
2022/05/27 03:23:19;;;;;;;10.00;4.97;;;12.90;99.90;;;;;;5074651;28;20634;-64
2022/05/27 03:25:51;;;;;;;10.30;4.90;;;12.90;99.90;;;;;;5074875;28;20202;-64
2022/05/27 03:28:28;;;;;;;8.10;4.90;;;12.90;99.90;;;;;;5074801;28;20225;-64
2022/05/27 03:31:00;;;;;;;8.33;5.03;;;12.90;99.90;;;;;;5075102;28;20209;-64
2022/05/27 03:33:32;;;;;;;15.37;5.17;;;12.90;99.90;;;;;;5074884;28;20233;-64
2022/05/27 03:36:10;;;;;;;6.10;4.50;;;12.90;99.90;;;;;;5074512;28;20201;-63
2022/05/27 03:38:40;;;;;;;9.37;5.30;;;12.90;99.90;;;;;;5074635;28;20739;-64
2022/05/27 03:41:11;;;;;;;8.00;5.43;;;12.90;99.90;;;;;;5074373;28;20264;-64
2022/05/27 03:43:39;;;;;;;9.23;5.67;;;12.80;99.90;;;;;;5074702;28;20277;-64
2022/05/27 03:46:05;;;;;;;7.47;5.70;;;12.80;99.90;;;;;;5074142;28;20209;-63
2022/05/27 03:48:34;;;;;;;10.13;5.70;;;12.70;99.90;;;;;;5074468;28;20226;-64
2022/05/27 03:51:08;;;;;;;8.97;6.53;;;12.70;99.90;;;;;;5074444;28;20215;-64
2022/05/27 03:56:19;;;;;;;9.03;5.40;;;12.60;99.90;;;;;;5074010;28;20207;-63
2022/05/27 03:58:45;;;;;;;12.97;9.70;;;12.60;99.90;;;;;;5074484;28;20250;-64
2022/05/27 04:01:12;;;;;;;10.40;8.00;;;12.50;99.90;;;;;;5073284;28;20205;-64
2022/05/27 04:03:39;;;;;;;5.23;3.60;;;12.50;99.90;;;;;;5074326;28;20229;-64
2022/05/27 04:06:07;;;;;;;8.50;3.60;;;12.30;99.90;;;;;;5074056;28;20281;-64
2022/05/27 04:08:34;;;;;;;6.73;3.80;;;12.20;99.90;;;;;;5073623;28;20290;-64
2022/05/27 04:11:00;;;;;;;4.67;3.87;;;12.20;99.90;;;;;;5074028;28;20207;-64
2022/05/27 04:13:27;;;;;;;5.43;4.00;;;12.20;99.90;;;;;;5073768;28;20237;-64
2022/05/27 04:15:54;;;;;;;7.20;3.80;;;12.20;99.90;;;;;;5073206;28;20247;-64
2022/05/27 04:18:21;;;;;;;7.67;4.17;;;12.30;99.90;;;;;;5074035;28;20258;-63
2022/05/27 04:20:47;;;;;;;7.03;4.00;;;12.30;99.90;;;;;;5074045;28;20582;-64
2022/05/27 04:23:15;;;;;;;4.43;3.37;;;12.40;99.90;;;;;;5073784;28;20615;-64
2022/05/27 04:25:45;;;;;;;5.00;3.53;;;12.40;99.90;;;;;;5073935;28;20209;-64
2022/05/27 04:28:12;;;;;;;5.23;3.83;;;12.40;99.90;;;;;;5073207;28;20244;-63
2022/05/27 04:30:39;;;;;;;4.37;3.47;;;12.40;99.90;;;;;;5073780;28;20264;-64
2022/05/27 04:33:06;;;;;;;6.40;3.33;;;12.40;99.90;;;;;;5073425;28;20720;-64
2022/05/27 04:35:32;;;;;;;4.77;3.60;;;12.40;99.90;;;;;;5073139;28;20671;-65
2022/05/27 04:37:59;;;;;;;4.57;3.73;;;12.40;99.90;;;;;;5073319;28;20669;-65
2022/05/27 04:40:27;;;;;;;8.20;3.80;;;12.50;99.90;;;;;;5073389;28;20630;-65
2022/05/27 04:42:54;;;;;;;7.37;4.10;;;12.50;99.90;;;;;;5073318;28;20231;-65
2022/05/27 04:45:21;;;;;;;7.20;4.80;;;12.50;99.90;;;;;;5073479;28;20213;-64
2022/05/27 04:47:47;;;;;;;7.20;5.10;;;12.50;99.90;;;;;;5073247;28;20288;-65
2022/05/27 04:50:14;;;;;;;8.10;4.73;;;12.50;99.90;;;;;;5071991;28;20234;-64
2022/05/27 04:52:41;;;;;;;6.50;4.47;;;12.50;99.90;;;;;;5071634;28;20218;-64
2022/05/27 04:55:11;;;;;;;7.77;4.53;;;12.50;99.90;;;;;;5073138;28;20209;-65
2022/05/27 04:57:42;;;;;;;7.40;5.03;;;12.50;99.90;;;;;;5072588;28;20623;-64
2022/05/27 05:00:14;;;;;;;7.43;4.80;;;12.40;99.90;;;;;;5073130;28;20213;-64
2022/05/27 05:02:40;;;;;;;6.47;4.73;;;12.40;99.90;;;;;;5072521;28;20221;-64
2022/05/27 05:05:08;;;;;;;5.50;4.47;;;12.40;99.90;;;;;;5072719;28;20281;-64
2022/05/27 05:07:36;;;;;;;6.10;4.43;;;12.50;99.90;;;;;;5072472;28;20209;-64
2022/05/27 05:10:04;;;;;;;5.20;4.47;;;12.50;99.90;;;;;;5072237;28;20209;-64
2022/05/27 05:12:30;;;;;;;7.67;4.67;;;12.50;99.90;;;;;;5072851;28;20221;-64
2022/05/27 05:14:59;;;;;;;8.63;4.73;;;12.50;99.90;;;;;;5072173;28;20262;-65
2022/05/27 05:17:25;;;;;;;6.07;4.10;;;12.50;99.90;;;;;;5065047;28;20201;-64
2022/05/27 05:19:53;;;;;;;7.70;4.50;;;12.60;99.90;;;;;;5071476;28;20202;-65
2022/05/27 05:22:20;;;;;;;5.87;4.23;;;12.60;99.90;;;;;;5072037;28;20225;-66
2022/05/27 05:24:47;;;;;;;4.90;3.97;;;12.60;99.90;;;;;;5072172;28;20208;-64
2022/05/27 05:27:13;;;;;;;7.00;4.60;;;12.60;99.90;;;;;;5072081;28;20209;-64
2022/05/27 05:29:40;;;;;;;6.80;4.10;;;12.60;99.90;;;;;;5071994;28;20235;-63
2022/05/27 05:32:08;;;;;;;6.20;4.50;;;12.60;99.90;;;;;;5071694;28;20229;-63
2022/05/27 05:34:35;;;;;;;7.87;4.57;;;12.60;99.90;;;;;;5072005;28;20207;-65
2022/05/27 05:37:02;;;;;;;7.20;4.43;;;12.70;99.90;;;;;;5071045;28;20202;-64
2022/05/27 05:39:29;;;;;;;5.53;4.33;;;12.70;99.90;;;;;;5071658;28;20667;-63
2022/05/27 05:41:58;;;;;;;8.73;4.47;;;12.70;99.90;;;;;;5072005;28;20291;-62
2022/05/27 05:44:26;;;;;;;6.77;4.40;;;12.80;99.90;;;;;;5071656;28;20266;-63
2022/05/27 05:46:53;;;;;;;8.57;4.90;;;12.80;99.90;;;;;;5071534;28;20210;-65
2022/05/27 05:49:22;;;;;;;7.00;4.57;;;12.80;99.90;;;;;;5070988;28;20640;-64
2022/05/27 05:51:49;;;;;;;5.50;4.40;;;12.90;99.90;;;;;;5071703;28;20213;-66
2022/05/27 05:54:15;;;;;;;10.17;5.03;;;12.90;99.90;;;;;;5071511;28;20238;-63
2022/05/27 05:56:42;;;;;;;8.03;5.00;;;12.90;99.90;;;;;;5071400;28;20251;-63
2022/05/27 05:59:09;;;;;;;8.13;5.13;;;12.90;99.90;;;;;;5071234;28;20223;-65
2022/05/27 06:01:36;;;;;;;6.27;5.13;;;13.00;99.90;;;;;;5070906;28;20738;-63
2022/05/27 06:04:02;;;;;;;6.13;4.60;;;13.10;99.90;;;;;;5071109;28;20297;-62
2022/05/27 06:06:31;;;;;;;12.17;5.60;;;13.10;99.90;;;;;;5070880;28;20207;-64
2022/05/27 06:08:57;;;;;;;7.33;5.27;;;13.20;99.90;;;;;;5071328;28;20224;-64
2022/05/27 06:11:24;;;;;;;8.90;6.33;;;13.30;99.90;;;;;;5071482;28;20252;-65
2022/05/27 06:13:51;;;;;;;8.80;5.03;;;13.30;99.90;;;;;;5071117;28;20585;-64
2022/05/27 06:16:18;;;;;;;7.93;5.13;;;13.40;99.90;;;;;;5070591;28;20223;-65
2022/05/27 06:18:45;;;;;;;6.50;5.17;;;13.50;99.90;;;;;;5070349;28;20207;-64
2022/05/27 06:21:12;;;;;;;7.93;4.97;;;13.50;99.90;;;;;;5071456;28;20227;-64
2022/05/27 06:23:40;;;;;;;7.20;4.77;;;13.60;99.90;;;;;;5070577;28;20281;-64
2022/05/27 06:26:09;;;;;;;7.23;4.50;;;13.60;99.90;;;;;;5070890;28;20554;-63
2022/05/27 06:36:50;;;;;;;7.93;4.10;;;13.60;99.90;;;;;;5070409;28;20260;-63
2022/05/27 06:39:18;;;;;;;6.93;4.20;;;13.70;99.90;;;;;;5070685;28;20287;-62
2022/05/27 06:41:45;;;;;;;6.10;4.37;;;13.80;99.90;;;;;;5070541;28;20212;-62
2022/05/27 06:44:12;;;;;;;7.60;4.57;;;13.80;99.90;;;;;;5070889;28;20281;-63
2022/05/27 06:46:38;;;;;;;6.97;4.30;;;13.90;99.90;;;;;;5070615;28;20212;-62
2022/05/27 06:49:06;;;;;;;4.73;4.23;;;13.90;99.90;;;;;;5070351;28;20227;-62
2022/05/27 06:51:35;;;;;;;7.00;4.97;;;14.10;99.90;;;;;;5071210;28;20739;-62
2022/05/27 06:54:02;;;;;;;8.57;4.70;;;14.20;99.90;;;;;;5070189;28;20793;-63
2022/05/27 06:56:30;;;;;;;6.27;4.33;;;14.30;99.90;;;;;;5070447;28;20742;-65
2022/05/27 06:58:56;;;;;;;4.97;4.00;;;14.40;99.90;;;;;;5070461;28;20208;-65
2022/05/27 07:01:23;;;;;;;5.50;4.37;;;14.50;99.90;;;;;;5070698;28;20204;-66
2022/05/27 07:03:50;;;;;;;6.10;4.30;;;14.60;99.90;;;;;;5070901;28;20224;-64
2022/05/27 07:06:17;;;;;;;6.03;4.60;;;14.70;99.90;;;;;;5069946;28;20331;-65
2022/05/27 07:08:44;;;;;;;7.90;4.10;;;14.80;99.90;;;;;;5070342;28;20228;-64
2022/05/27 07:11:11;;;;;;;9.43;4.43;;;14.90;99.90;;;;;;5070662;28;20208;-65
2022/05/27 07:13:39;;;;;;;9.50;4.23;;;14.90;99.90;;;;;;5070921;28;20320;-62
2022/05/27 07:16:06;;;;;;;10.37;4.17;;;15.00;99.90;;;;;;5070126;28;20258;-63
2022/05/27 07:18:33;;;;;;;7.43;4.00;;;15.20;99.90;;;;;;5070899;28;20204;-65
2022/05/27 07:21:02;;;;;;;5.63;3.80;;;15.20;99.90;;;;;;5071201;28;20201;-63
2022/05/27 07:23:28;;;;;;;9.50;4.00;;;15.30;99.90;;;;;;5070432;28;20302;-63
2022/05/27 07:25:55;;;;;;;5.90;3.90;;;15.20;99.90;;;;;;5070268;28;20227;-64
2022/05/27 07:28:22;;;;;;;5.30;3.97;;;15.20;99.90;;;;;;5069613;28;20216;-65
2022/05/27 07:30:50;;;;;;;6.67;3.53;;;15.20;99.90;;;;;;5070784;28;20200;-63
2022/05/27 07:33:16;;;;;;;7.03;4.20;;;15.30;99.90;;;;;;5070473;28;20233;-62
2022/05/27 07:35:44;;;;;;;9.50;4.30;;;15.40;99.90;;;;;;5070453;28;20258;-64
2022/05/27 07:38:11;;;;;;;5.47;4.20;;;15.40;99.90;;;;;;5073575;28;20205;-64
2022/05/27 07:40:37;;;;;;;9.00;4.23;;;15.40;99.90;;;;;;5073709;28;20671;-65
2022/05/27 07:43:04;;;;;;;6.40;4.23;;;15.30;99.90;;;;;;5074004;28;20225;-67
2022/05/27 07:45:32;;;;;;;7.73;4.57;;;15.20;99.90;;;;;;5073853;28;20235;-63
2022/05/27 07:48:00;;;;;;;8.97;5.30;;;15.10;99.90;;;;;;5073116;28;20205;-64
2022/05/27 07:50:27;;;;;;;9.17;5.07;;;15.10;99.90;;;;;;5073439;28;20244;-64
2022/05/27 07:52:54;;;;;;;8.90;5.50;;;15.10;99.90;;;;;;5073632;28;20254;-64
2022/05/27 07:55:21;;;;;;;9.03;5.00;;;15.20;99.90;;;;;;5073744;28;20209;-69
2022/05/27 07:57:49;;;;;;;8.00;4.13;;;15.50;99.90;;;;;;5073228;28;20213;-67
2022/05/27 08:00:18;;;;;;;13.13;4.57;;;15.60;99.90;;;;;;5073665;28;20201;-63
2022/05/27 08:02:45;;;;;;;12.10;4.73;;;15.70;99.90;;;;;;5073426;28;20784;-66
2022/05/27 08:05:15;;;;;;;7.77;4.37;;;15.70;99.90;;;;;;5073534;28;20553;-65
2022/05/27 08:07:43;;;;;;;6.13;4.37;;;15.70;99.90;;;;;;5073341;28;20620;-67
2022/05/27 08:10:11;;;;;;;11.10;5.07;;;15.70;99.90;;;;;;5073139;28;20226;-62
2022/05/27 08:12:37;;;;;;;8.27;4.50;;;15.60;99.90;;;;;;5073497;28;20225;-62
2022/05/27 08:15:05;;;;;;;10.80;5.53;;;15.80;99.90;;;;;;5073000;28;20587;-63
2022/05/27 08:17:32;;;;;;;9.97;5.87;;;16.10;99.90;;;;;;5073157;28;20215;-63
2022/05/27 08:19:59;;;;;;;12.20;6.60;;;16.20;99.90;;;;;;5073386;28;20258;-63
2022/05/27 08:22:27;;;;;;;8.43;6.23;;;16.30;99.90;;;;;;5072964;28;20601;-64
2022/05/27 08:24:53;;;;;;;9.73;7.00;;;16.50;99.90;;;;;;5073479;28;20262;-63
2022/05/27 08:27:20;;;;;;;9.63;6.03;;;16.70;99.90;;;;;;5072160;28;20251;-63
2022/05/27 08:29:47;;;;;;;12.23;6.77;;;16.80;99.90;;;;;;5072910;28;20250;-64
2022/05/27 08:32:13;;;;;;;7.83;6.17;;;16.70;99.90;;;;;;5072994;28;20709;-64
2022/05/27 08:40:22;;;;;;;6.83;5.47;;;16.50;99.90;;;;;;5073205;28;20192;-63
2022/05/27 08:42:56;;;;;;;14.03;6.30;;;16.60;99.90;;;;;;5076844;28;20288;-63
2022/05/27 08:45:31;;;;;;;9.93;5.63;;;16.60;99.90;;;;;;5078646;28;20207;-64
2022/05/27 08:48:02;;;;;;;10.40;6.00;;;16.70;99.90;;;;;;5075525;28;20277;-62
2022/05/27 08:50:36;;;;;;;8.83;5.40;;;16.40;95.80;;;;;;5075684;28;20274;-65
2022/05/27 08:53:10;;;;;;;8.73;6.00;;;16.40;99.90;;;;;;5077817;28;20217;-64
2022/05/27 09:01:20;;;;;;;8.27;4.73;;;16.20;99.90;;;;;;5072097;28;20207;-63
2022/05/27 09:03:52;;;;;;;9.37;5.00;;;16.00;54.60;;;;;;5072223;28;20225;-64
2022/05/27 09:06:35;;;;;;;7.47;4.57;;;15.90;64.20;;;;;;5072099;28;20785;-64
2022/05/27 09:09:06;;;;;;;7.63;4.27;;;15.70;73.70;;;;;;5075241;28;20224;-66
2022/05/27 09:11:45;;;;;;;7.93;3.83;;;15.80;68.30;;;;;;5072364;28;20213;-67
2022/05/27 09:14:14;;;;;;;6.20;3.60;;;16.10;58.10;;;;;;5072103;28;20228;-65
2022/05/27 09:16:51;;;;;;;5.33;2.90;;;16.50;18.70;;;;;;5071945;28;20213;-65
2022/05/27 09:19:26;;;;;;;4.53;2.90;;;16.60;1.00;;;;;;5073116;28;20251;-67
2022/05/27 09:22:01;;;;;;;6.87;3.20;;;16.50;1.00;;;;;;5073510;28;20231;-67
2022/05/27 09:24:42;;;;;;;5.63;2.73;;;16.60;99.90;;;;;;5072197;28;20823;-66
2022/05/27 09:27:14;;;;;;;4.67;2.43;;;16.80;99.90;;;;;;5071605;28;20262;-65
2022/05/27 09:29:57;;;;;;;7.67;2.83;;;17.10;95.00;;;;;;5071776;28;20641;-64
2022/05/27 09:32:31;;;;;;;6.87;2.60;;;17.40;99.90;;;;;;5071310;28;20221;-64
2022/05/27 09:35:02;;;;;;;5.20;2.43;;;17.30;99.90;;;;;;5072108;28;20205;-64
2022/05/27 09:37:34;;;;;;;11.30;2.70;;;17.30;1.00;;;;;;5070694;28;20205;-64
2022/05/27 09:40:06;;;;;;;7.60;3.07;;;17.20;55.80;;;;;;5071264;28;20205;-65
2022/05/27 09:42:43;;;;;;;6.63;2.63;;;17.00;1.00;;;;;;5071442;28;20270;-63
2022/05/27 09:45:11;;;;;;;6.67;2.60;;;16.80;1.00;;;;;;5072035;28;20216;-62
2022/05/27 09:47:41;;;;;;;11.37;2.70;;;16.60;96.60;;;;;;5071524;28;20224;-63
2022/05/27 09:50:24;;;;;;;4.63;2.20;;;16.40;1.00;;;;;;5071544;28;20236;-63
2022/05/27 09:52:54;;;;;;;6.33;2.30;;;16.20;1.00;;;;;;5072713;28;20229;-65
2022/05/27 09:55:25;;;;;;;9.80;3.03;;;16.10;1.00;;;;;;5071421;28;20220;-66
2022/05/27 09:57:59;;;;;;;7.00;3.23;;;16.30;1.00;;;;;;5070847;28;20234;-66
2022/05/27 10:00:43;;;;;;;6.73;3.10;;;16.80;1.00;;;;;;5071011;28;20557;-65
2022/05/27 10:03:29;;;;;;;10.40;3.00;;;17.20;1.00;;;;;;5071664;28;20228;-67
2022/05/27 10:06:00;;;;;;;5.43;2.13;;;17.20;1.00;;;;;;5070994;28;20292;-67
2022/05/27 10:08:32;;;;;;;7.67;2.97;;;17.20;1.00;;;;;;5072235;28;20580;-64
2022/05/27 10:11:16;;;;;;;6.23;2.57;;;16.90;1.00;;;;;;5070985;28;20764;-63
2022/05/27 10:13:44;;;;;;;10.70;2.67;;;16.60;1.00;;;;;;5070838;28;20227;-63
2022/05/27 10:16:15;;;;;;;8.47;2.80;;;16.40;1.00;;;;;;5070563;28;20543;-62
2022/05/27 10:18:45;;;;;;;11.77;3.03;;;16.40;1.00;;;;;;5070244;28;20290;-62
2022/05/27 10:21:16;;;;;;;5.63;2.43;;;16.50;1.00;;;;;;5071204;28;20292;-62
2022/05/27 10:23:45;;;;;;;4.73;2.40;;;16.70;1.00;;;;;;5070739;28;20319;-62
2022/05/27 10:26:25;;;;;;;8.57;3.30;;;17.00;1.00;;;;;;5070557;28;20297;-64
2022/05/27 10:29:02;;;;;;;6.77;2.63;;;17.20;1.00;;;;;;5070483;28;20211;-63
2022/05/27 10:31:30;;;;;;;7.10;2.40;;;17.20;1.00;;;;;;5070900;28;20258;-63
2022/05/27 10:33:57;;;;;;;8.27;3.10;;;17.30;1.00;;;;;;5070929;28;20227;-63
2022/05/27 10:36:50;;;;;;;6.57;2.70;;;17.00;99.90;;;;;;5070354;28;20262;-63
2022/05/27 10:39:23;;;;;;;7.23;2.43;;;17.20;99.90;;;;;;5050448;28;20212;-63
2022/05/27 10:42:12;;;;;;;6.57;2.60;;;17.20;99.90;;;;;;5050340;28;20202;-64
2022/05/27 10:44:50;;;;;;;7.83;2.40;;;17.60;99.90;;;;;;5050964;28;20206;-65
2022/05/27 10:47:29;;;;;;;3.60;1.90;;;17.60;99.90;;;;;;5053040;28;20958;-64
2022/05/27 10:50:18;;;;;;;6.10;2.40;;;17.70;99.90;;;;;;5071168;28;20229;-65
2022/05/27 10:53:05;;;;;;;10.63;2.40;;;17.50;99.90;;;;;;5070401;28;20316;-64
2022/05/27 10:55:42;;;;;;;7.40;2.17;;;17.30;99.90;;;;;;5071023;28;20200;-64
2022/05/27 11:04:26;;;;;;;6.33;2.33;;;18.10;99.90;;;;;;5064112;28;20282;-64
2022/05/27 11:07:05;;;;;;;3.93;2.10;;;18.40;99.90;;;;;;5070519;28;20240;-64
2022/05/27 11:09:43;;;;;;;7.27;2.60;;;18.70;99.90;;;;;;5070774;28;20640;-63
2022/05/27 11:12:18;;;;;;;7.37;1.87;;;18.80;99.90;;;;;;5073994;28;20204;-63
2022/05/27 11:15:12;;;;;;;7.73;2.17;;;18.80;99.90;;;;;;5074675;28;20215;-63
2022/05/27 11:17:51;;;;;;;5.90;1.83;;;19.00;99.90;;;;;;5073639;28;20216;-63
2022/05/27 11:20:35;;;;;;;7.30;1.90;;;19.10;99.90;;;;;;5073861;28;20262;-65
2022/05/27 11:23:15;;;;;;;5.37;1.93;;;19.10;99.90;;;;;;5074498;28;20366;-66
2022/05/27 11:25:59;;;;;;;6.57;1.60;;;18.90;99.90;;;;;;5074688;28;20200;-64
2022/05/27 11:28:54;;;;;;;6.77;2.13;;;18.70;99.90;;;;;;5073761;28;20258;-65
2022/05/27 11:31:28;;;;;;;7.90;2.33;;;18.60;99.90;;;;;;5073920;28;20299;-65
2022/05/27 11:34:06;;;;;;;7.77;2.10;;;18.20;99.90;;;;;;5073980;28;20233;-65
2022/05/27 11:36:54;;;;;;;6.13;2.23;;;17.70;99.90;;;;;;5075978;28;20671;-65
2022/05/27 11:39:51;;;;;;;9.10;2.40;;;17.40;99.90;;;;;;5072184;28;20266;-63
2022/05/27 11:42:33;;;;;;;7.67;2.20;;;17.70;99.90;;;;;;5074566;28;20213;-66
2022/05/27 11:45:08;;;;;;;6.07;1.90;;;18.10;99.90;;;;;;5073801;28;20259;-64
2022/05/27 11:47:52;;;;;;;7.03;1.97;;;18.50;99.90;;;;;;5073290;28;20299;-63
2022/05/27 11:50:35;;;;;;;7.37;2.07;;;18.60;99.90;;;;;;5073474;28;20729;-62
2022/05/27 11:53:20;;;;;;;8.67;2.33;;;17.90;99.90;;;;;;5073900;28;20232;-63
2022/05/27 11:56:02;;;;;;;6.07;2.30;;;17.40;99.90;;;;;;5074226;28;20633;-63
2022/05/27 11:58:37;;;;;;;9.50;2.87;;;17.40;99.90;;;;;;5073544;28;20205;-64
2022/05/27 12:01:09;;;;;;;6.37;2.47;;;17.60;99.90;;;;;;5074052;28;20212;-62
2022/05/27 12:03:42;;;;;;;4.73;1.93;;;17.70;99.90;;;;;;5073442;28;20256;-62
2022/05/27 12:06:13;;;;;;;8.73;2.10;;;17.60;99.90;;;;;;5075267;28;20624;-61
2022/05/27 12:08:44;;;;;;;9.00;2.50;;;17.70;99.90;;;;;;5077150;28;20213;-63
2022/05/27 12:11:15;;;;;;;9.97;2.20;;;17.90;99.90;;;;;;5073551;28;20295;-64
2022/05/27 12:13:47;;;;;;;6.70;2.20;;;18.10;99.90;;;;;;5073706;28;20640;-64
2022/05/27 12:16:16;;;;;;;9.80;1.70;;;18.40;99.90;;;;;;5072556;28;20220;-62
2022/05/27 12:18:46;;;;;;;4.03;1.67;;;18.50;99.90;;;;;;5073933;28;20246;-64
2022/05/27 12:21:18;;;;;;;5.70;2.30;;;18.40;99.90;;;;;;5072079;28;20205;-63
2022/05/27 12:23:51;;;;;;;10.03;2.50;;;18.50;99.90;;;;;;5073332;28;20710;-63
2022/05/27 12:26:22;;;;;;;6.67;2.00;;;18.60;99.90;;;;;;5072677;28;20224;-62
2022/05/27 12:28:50;;;;;;;3.53;1.70;;;18.80;99.90;;;;;;5072853;28;20204;-64
2022/05/27 12:31:17;;;;;;;4.53;2.03;;;18.70;99.90;;;;;;5072964;28;20225;-63
2022/05/27 12:33:44;;;;;;;5.90;1.80;;;18.80;99.90;;;;;;5072210;28;20232;-63
2022/05/27 12:36:20;;;;;;;5.17;1.60;;;19.00;99.90;;;;;;5073597;28;20667;-63
2022/05/27 12:38:49;;;;;;;3.30;1.40;;;19.10;99.90;;;;;;5072759;28;20222;-63
2022/05/27 12:41:31;;;;;;;10.53;1.80;;;19.10;99.90;;;;;;5072979;28;20262;-64
2022/05/27 12:44:00;;;;;;;6.13;1.93;;;18.90;99.90;;;;;;5072213;28;20229;-63
2022/05/27 12:46:32;;;;;;;8.47;2.30;;;18.80;99.90;;;;;;5072905;28;20204;-64
2022/05/27 12:49:25;;;;;;;5.97;1.93;;;18.90;99.90;;;;;;5072425;28;20205;-62
2022/05/27 12:51:54;;;;;;;5.40;2.10;;;19.10;99.90;;;;;;5072473;28;20225;-63
2022/05/27 12:55:01;;;;;;;8.67;2.00;;;19.00;99.90;;;;;;5072323;28;20224;-63
2022/05/27 13:00:58;;;;;;;8.87;2.57;;;19.20;99.90;;;;;;5072149;28;20195;-61
2022/05/27 13:03:48;;;;;;;5.83;1.90;;;18.90;99.90;;;;;;5072087;28;20237;-63
2022/05/27 13:06:18;;;;;;;5.77;1.97;;;18.60;99.90;;;;;;5072747;28;20227;-63
2022/05/27 13:08:48;;;;;;;4.67;1.73;;;18.40;99.90;;;;;;5071983;28;20213;-63
2022/05/27 13:11:16;;;;;;;5.77;1.77;;;18.40;99.90;;;;;;5072066;28;20232;-62
2022/05/27 13:13:43;;;;;;;7.80;1.93;;;18.30;99.90;;;;;;5072029;28;20232;-62
2022/05/27 13:16:25;;;;;;;8.87;2.10;;;18.40;99.90;;;;;;5071941;28;20757;-64
2022/05/27 13:18:59;;;;;;;8.37;2.10;;;18.50;99.90;;;;;;5071453;28;20602;-63
2022/05/27 13:21:39;;;;;;;5.17;1.73;;;18.40;99.90;;;;;;5071317;28;20674;-63
2022/05/27 13:24:24;;;;;;;9.63;2.07;;;18.50;99.90;;;;;;5072490;28;20221;-64
2022/05/27 13:26:59;;;;;;;7.53;2.30;;;18.60;99.90;;;;;;5071730;28;20208;-64
2022/05/27 13:29:29;;;;;;;5.77;1.60;;;18.20;99.90;;;;;;5072179;28;20204;-64
2022/05/27 13:32:00;;;;;;;7.97;2.00;;;18.20;99.90;;;;;;5071703;28;20267;-62
2022/05/27 13:34:41;;;;;;;7.37;1.93;;;18.30;99.90;;;;;;5071493;28;20201;-64
2022/05/27 13:37:18;;;;;;;9.20;1.80;;;18.40;99.90;;;;;;5071678;28;20208;-64
2022/05/27 13:39:52;;;;;;;9.37;1.83;;;18.20;99.90;;;;;;5071647;28;20679;-64
2022/05/27 13:42:28;;;;;;;7.70;2.20;;;18.20;99.90;;;;;;5071545;28;20200;-63
2022/05/27 13:44:58;;;;;;;7.30;1.97;;;18.30;99.90;;;;;;5072076;28;20292;-62
2022/05/27 13:47:28;;;;;;;8.03;1.97;;;18.10;99.90;;;;;;5071758;28;20234;-63